Winside, Nebraska
Current Conditions -  °F | °C
As of 4:35 AM on Friday 24 Oct 2014 (Local Time) from KLCG Reporting Station
Clear Clear  
Wind Chill: 58°   Ceiling: Unl
Heat Index: 58°   Visibility: 10mi
Dew Point: 55°   Wind: 12mph
Humidity: 90%   Direction: 210°SSW
Pressure: 29.9"   Gusts: NA
Location:  42.18°N, 97.18°W
Report Text: KLCG 240935Z AUTO 21010KT 10SM CLR 14/13 A2990 RMK AO2 T01440128
Loading
Personal Weather Stations






























Interactive Weather Map
Tropical Storm Tracking
New forecast layout! Learn more

10-Day Weather Forecast

Advertisements
Track Severe Weather on mobile